sensor_id;sensor_type;location;lat;lon;timestamp;P1;durP1;ratioP1;P2;durP2;ratioP2
49582;SDS011;36329;48.816;44.624;2022-08-19T00:02:57;8.6;;;4.9;;
49582;SDS011;36329;48.816;44.624;2022-08-19T00:05:59;8.6;;;4.9;;
49582;SDS011;36329;48.816;44.624;2022-08-19T00:09:02;9.9;;;5.3;;
49582;SDS011;36329;48.816;44.624;2022-08-19T00:12:12;8;;;4.8;;
49582;SDS011;36329;48.816;44.624;2022-08-19T00:15:15;8.4;;;4.9;;
49582;SDS011;36329;48.816;44.624;2022-08-19T00:18:18;10.3;;;5.1;;
49582;SDS011;36329;48.816;44.624;2022-08-19T00:21:25;7;;;5.1;;
49582;SDS011;36329;48.816;44.624;2022-08-19T00:24:29;8.3;;;5.1;;
49582;SDS011;36329;48.816;44.624;2022-08-19T00:27:30;8.7;;;5;;
49582;SDS011;36329;48.816;44.624;2022-08-19T00:30:32;9;;;5.5;;
49582;SDS011;36329;48.816;44.624;2022-08-19T00:33:34;7.5;;;4.8;;
49582;SDS011;36329;48.816;44.624;2022-08-19T00:36:36;9.2;;;5.3;;
49582;SDS011;36329;48.816;44.624;2022-08-19T00:39:43;9.3;;;4.6;;
49582;SDS011;36329;48.816;44.624;2022-08-19T00:42:45;9.9;;;5.4;;
49582;SDS011;36329;48.816;44.624;2022-08-19T00:45:47;11.1;;;5;;
49582;SDS011;36329;48.816;44.624;2022-08-19T00:48:54;7.6;;;5.1;;
49582;SDS011;36329;48.816;44.624;2022-08-19T00:51:59;10.1;;;5.8;;
49582;SDS011;36329;48.816;44.624;2022-08-19T00:55:08;9.5;;;5.4;;
49582;SDS011;36329;48.816;44.624;2022-08-19T00:58:16;13.1;;;5.3;;
49582;SDS011;36329;48.816;44.624;2022-08-19T01:01:32;10.8;;;5.5;;
49582;SDS011;36329;48.816;44.624;2022-08-19T01:04:33;7.9;;;5.2;;
49582;SDS011;36329;48.816;44.624;2022-08-19T01:07:35;10.4;;;5.4;;
49582;SDS011;36329;48.816;44.624;2022-08-19T01:10:39;9.4;;;5.4;;
49582;SDS011;36329;48.816;44.624;2022-08-19T01:13:49;7.8;;;5.2;;
49582;SDS011;36329;48.816;44.624;2022-08-19T01:16:53;7.8;;;4.9;;
49582;SDS011;36329;48.816;44.624;2022-08-19T01:19:56;7.3;;;4.6;;
49582;SDS011;36329;48.816;44.624;2022-08-19T01:22:58;7.7;;;4.7;;
49582;SDS011;36329;48.816;44.624;2022-08-19T01:26:00;9.7;;;5.3;;
49582;SDS011;36329;48.816;44.624;2022-08-19T01:29:01;11.1;;;5.5;;
49582;SDS011;36329;48.816;44.624;2022-08-19T01:32:05;7.5;;;4.8;;
49582;SDS011;36329;48.816;44.624;2022-08-19T01:35:07;8.6;;;5.2;;
49582;SDS011;36329;48.816;44.624;2022-08-19T01:38:10;9.4;;;5.2;;
49582;SDS011;36329;48.816;44.624;2022-08-19T01:41:21;9.6;;;5.4;;
49582;SDS011;36329;48.816;44.624;2022-08-19T01:44:23;8.8;;;5.7;;
49582;SDS011;36329;48.816;44.624;2022-08-19T01:47:24;11.2;;;5.7;;
49582;SDS011;36329;48.816;44.624;2022-08-19T01:50:26;9.2;;;5.6;;
49582;SDS011;36329;48.816;44.624;2022-08-19T01:53:29;11.3;;;5.7;;
49582;SDS011;36329;48.816;44.624;2022-08-19T01:56:36;8.6;;;5.4;;
49582;SDS011;36329;48.816;44.624;2022-08-19T01:59:37;9.9;;;5.8;;
49582;SDS011;36329;48.816;44.624;2022-08-19T02:02:41;10.2;;;5.8;;
49582;SDS011;36329;48.816;44.624;2022-08-19T02:05:53;11;;;5.6;;
49582;SDS011;36329;48.816;44.624;2022-08-19T02:09:00;7.8;;;5.4;;
49582;SDS011;36329;48.816;44.624;2022-08-19T02:12:04;8.3;;;5.2;;
49582;SDS011;36329;48.816;44.624;2022-08-19T02:15:23;8.9;;;5.7;;
49582;SDS011;36329;48.816;44.624;2022-08-19T02:18:25;8.4;;;5.2;;
49582;SDS011;36329;48.816;44.624;2022-08-19T02:21:27;8.8;;;5.1;;
49582;SDS011;36329;48.816;44.624;2022-08-19T02:24:30;10.3;;;5.7;;
49582;SDS011;36329;48.816;44.624;2022-08-19T02:27:37;8.8;;;5.6;;
49582;SDS011;36329;48.816;44.624;2022-08-19T02:30:40;9.8;;;5.6;;
49582;SDS011;36329;48.816;44.624;2022-08-19T02:33:43;9.5;;;5.9;;
49582;SDS011;36329;48.816;44.624;2022-08-19T02:36:45;8.8;;;5.1;;
49582;SDS011;36329;48.816;44.624;2022-08-19T02:39:52;9.9;;;5.5;;
49582;SDS011;36329;48.816;44.624;2022-08-19T02:42:54;8.1;;;5.2;;
49582;SDS011;36329;48.816;44.624;2022-08-19T02:45:56;7.6;;;5.3;;
49582;SDS011;36329;48.816;44.624;2022-08-19T02:49:00;9.3;;;5.2;;
49582;SDS011;36329;48.816;44.624;2022-08-19T02:52:04;9.6;;;5.5;;
49582;SDS011;36329;48.816;44.624;2022-08-19T02:55:06;9.3;;;5.6;;
49582;SDS011;36329;48.816;44.624;2022-08-19T02:58:19;11.2;;;5.8;;
49582;SDS011;36329;48.816;44.624;2022-08-19T03:01:23;9.6;;;5.4;;
49582;SDS011;36329;48.816;44.624;2022-08-19T03:04:32;7.6;;;5.2;;
49582;SDS011;36329;48.816;44.624;2022-08-19T03:07:34;8.1;;;5.3;;
49582;SDS011;36329;48.816;44.624;2022-08-19T03:10:39;8.5;;;5.1;;
49582;SDS011;36329;48.816;44.624;2022-08-19T03:13:42;9.1;;;5.5;;
49582;SDS011;36329;48.816;44.624;2022-08-19T03:16:49;7.4;;;5.1;;
49582;SDS011;36329;48.816;44.624;2022-08-19T03:19:58;9.8;;;5.1;;
49582;SDS011;36329;48.816;44.624;2022-08-19T03:26:12;8.7;;;5.3;;
49582;SDS011;36329;48.816;44.624;2022-08-19T03:29:14;11.9;;;5.3;;
49582;SDS011;36329;48.816;44.624;2022-08-19T03:32:16;9.6;;;5.2;;
49582;SDS011;36329;48.816;44.624;2022-08-19T03:35:18;8.4;;;5;;
49582;SDS011;36329;48.816;44.624;2022-08-19T03:38:30;9.1;;;5.1;;
49582;SDS011;36329;48.816;44.624;2022-08-19T03:41:39;7.3;;;4.8;;
49582;SDS011;36329;48.816;44.624;2022-08-19T03:44:47;9.7;;;4.9;;
49582;SDS011;36329;48.816;44.624;2022-08-19T03:48:16;9.2;;;4.9;;
49582;SDS011;36329;48.816;44.624;2022-08-19T03:51:29;10.3;;;5.6;;
49582;SDS011;36329;48.816;44.624;2022-08-19T03:54:43;8.7;;;4.7;;
49582;SDS011;36329;48.816;44.624;2022-08-19T03:57:45;6.5;;;4.6;;
49582;SDS011;36329;48.816;44.624;2022-08-19T04:00:47;10.6;;;5;;
49582;SDS011;36329;48.816;44.624;2022-08-19T04:03:49;8;;;4.6;;
49582;SDS011;36329;48.816;44.624;2022-08-19T04:06:57;9.5;;;4.8;;
49582;SDS011;36329;48.816;44.624;2022-08-19T04:09:58;9.1;;;4.8;;
49582;SDS011;36329;48.816;44.624;2022-08-19T04:13:00;9.3;;;4.5;;
49582;SDS011;36329;48.816;44.624;2022-08-19T04:16:02;7.8;;;4.7;;
49582;SDS011;36329;48.816;44.624;2022-08-19T04:19:04;6.1;;;4.5;;
49582;SDS011;36329;48.816;44.624;2022-08-19T04:22:06;6.6;;;4.7;;
49582;SDS011;36329;48.816;44.624;2022-08-19T04:25:12;7.6;;;5.2;;
49582;SDS011;36329;48.816;44.624;2022-08-19T04:28:15;8.8;;;5;;
49582;SDS011;36329;48.816;44.624;2022-08-19T04:31:18;5.6;;;4.4;;
49582;SDS011;36329;48.816;44.624;2022-08-19T04:34:22;8;;;4.5;;
49582;SDS011;36329;48.816;44.624;2022-08-19T04:37:31;9.3;;;4.4;;
49582;SDS011;36329;48.816;44.624;2022-08-19T04:40:39;7.8;;;4.2;;
49582;SDS011;36329;48.816;44.624;2022-08-19T04:43:42;6;;;4.3;;
49582;SDS011;36329;48.816;44.624;2022-08-19T04:46:51;7.8;;;4;;
49582;SDS011;36329;48.816;44.624;2022-08-19T04:49:54;7.2;;;4.2;;
49582;SDS011;36329;48.816;44.624;2022-08-19T04:53:01;8.6;;;3.8;;
49582;SDS011;36329;48.816;44.624;2022-08-19T04:56:08;8.8;;;4;;
49582;SDS011;36329;48.816;44.624;2022-08-19T04:59:12;6.5;;;3.1;;
49582;SDS011;36329;48.816;44.624;2022-08-19T05:02:20;6.7;;;3.2;;
49582;SDS011;36329;48.816;44.624;2022-08-19T05:05:21;5.8;;;3.1;;
49582;SDS011;36329;48.816;44.624;2022-08-19T05:08:28;7;;;3.1;;
49582;SDS011;36329;48.816;44.624;2022-08-19T05:11:31;4.5;;;2.8;;
49582;SDS011;36329;48.816;44.624;2022-08-19T05:14:34;6.4;;;2.8;;
49582;SDS011;36329;48.816;44.624;2022-08-19T05:17:35;5.4;;;3.3;;
49582;SDS011;36329;48.816;44.624;2022-08-19T05:20:38;5.4;;;3;;
49582;SDS011;36329;48.816;44.624;2022-08-19T05:23:40;9.1;;;3.5;;
49582;SDS011;36329;48.816;44.624;2022-08-19T05:26:42;4.9;;;2.9;;
49582;SDS011;36329;48.816;44.624;2022-08-19T05:29:45;6.1;;;2.7;;
49582;SDS011;36329;48.816;44.624;2022-08-19T05:32:47;6.5;;;2.9;;
49582;SDS011;36329;48.816;44.624;2022-08-19T05:35:48;5.9;;;2.7;;
49582;SDS011;36329;48.816;44.624;2022-08-19T05:38:55;8.2;;;2.8;;
49582;SDS011;36329;48.816;44.624;2022-08-19T05:41:58;6.8;;;3.1;;
49582;SDS011;36329;48.816;44.624;2022-08-19T05:45:01;6.9;;;2.8;;
49582;SDS011;36329;48.816;44.624;2022-08-19T05:48:08;8.5;;;3;;
49582;SDS011;36329;48.816;44.624;2022-08-19T05:51:11;8.7;;;3.1;;
49582;SDS011;36329;48.816;44.624;2022-08-19T05:54:13;6.9;;;2.7;;
49582;SDS011;36329;48.816;44.624;2022-08-19T05:57:16;6;;;3;;
49582;SDS011;36329;48.816;44.624;2022-08-19T06:00:24;6.7;;;3;;
49582;SDS011;36329;48.816;44.624;2022-08-19T06:03:32;9.9;;;2.9;;
49582;SDS011;36329;48.816;44.624;2022-08-19T06:06:40;8.7;;;3.1;;
49582;SDS011;36329;48.816;44.624;2022-08-19T06:09:46;10.9;;;3.1;;
49582;SDS011;36329;48.816;44.624;2022-08-19T06:12:49;12.8;;;3.4;;
49582;SDS011;36329;48.816;44.624;2022-08-19T06:15:51;10.8;;;2.9;;
49582;SDS011;36329;48.816;44.624;2022-08-19T06:18:58;9.6;;;2.8;;
49582;SDS011;36329;48.816;44.624;2022-08-19T06:25:33;7.5;;;2.9;;
49582;SDS011;36329;48.816;44.624;2022-08-19T06:28:34;9.1;;;2.9;;
49582;SDS011;36329;48.816;44.624;2022-08-19T06:31:36;7.6;;;2.7;;
49582;SDS011;36329;48.816;44.624;2022-08-19T06:34:48;10.9;;;2.8;;
49582;SDS011;36329;48.816;44.624;2022-08-19T06:37:51;10.6;;;2.9;;
49582;SDS011;36329;48.816;44.624;2022-08-19T06:40:59;10.9;;;2.7;;
49582;SDS011;36329;48.816;44.624;2022-08-19T06:44:07;9.1;;;2.9;;
49582;SDS011;36329;48.816;44.624;2022-08-19T06:47:13;11.6;;;2.8;;
49582;SDS011;36329;48.816;44.624;2022-08-19T06:50:23;9.8;;;2.9;;
49582;SDS011;36329;48.816;44.624;2022-08-19T06:53:25;15;;;3.2;;
49582;SDS011;36329;48.816;44.624;2022-08-19T06:56:27;9.6;;;2.7;;
49582;SDS011;36329;48.816;44.624;2022-08-19T07:03:02;10;;;2.6;;
49582;SDS011;36329;48.816;44.624;2022-08-19T07:06:04;9;;;2.5;;
49582;SDS011;36329;48.816;44.624;2022-08-19T07:09:07;13.4;;;2.3;;
49582;SDS011;36329;48.816;44.624;2022-08-19T07:12:12;10.7;;;2.2;;
49582;SDS011;36329;48.816;44.624;2022-08-19T07:15:15;10.6;;;2.2;;
49582;SDS011;36329;48.816;44.624;2022-08-19T07:18:17;9.1;;;1.9;;
49582;SDS011;36329;48.816;44.624;2022-08-19T07:21:20;11.6;;;2.3;;
49582;SDS011;36329;48.816;44.624;2022-08-19T07:24:33;8.4;;;2.2;;
49582;SDS011;36329;48.816;44.624;2022-08-19T07:27:37;9.3;;;2.2;;
49582;SDS011;36329;48.816;44.624;2022-08-19T07:30:38;14;;;2.1;;
49582;SDS011;36329;48.816;44.624;2022-08-19T07:33:40;11.4;;;2;;
49582;SDS011;36329;48.816;44.624;2022-08-19T07:36:42;10.2;;;2.3;;
49582;SDS011;36329;48.816;44.624;2022-08-19T07:39:44;12.4;;;2.3;;
49582;SDS011;36329;48.816;44.624;2022-08-19T07:42:47;10.2;;;2;;
49582;SDS011;36329;48.816;44.624;2022-08-19T07:45:48;11.4;;;2.2;;
49582;SDS011;36329;48.816;44.624;2022-08-19T07:48:50;9.9;;;2.1;;
49582;SDS011;36329;48.816;44.624;2022-08-19T07:51:54;9.9;;;2;;
49582;SDS011;36329;48.816;44.624;2022-08-19T07:54:57;15.7;;;2.5;;
49582;SDS011;36329;48.816;44.624;2022-08-19T07:57:58;11;;;2.3;;
49582;SDS011;36329;48.816;44.624;2022-08-19T08:01:00;10.8;;;2.2;;
49582;SDS011;36329;48.816;44.624;2022-08-19T08:04:08;8.9;;;2.1;;
49582;SDS011;36329;48.816;44.624;2022-08-19T08:07:09;11.1;;;2.1;;
49582;SDS011;36329;48.816;44.624;2022-08-19T08:10:16;10.9;;;2.3;;
49582;SDS011;36329;48.816;44.624;2022-08-19T08:13:18;11.1;;;2.2;;
49582;SDS011;36329;48.816;44.624;2022-08-19T08:16:20;11.3;;;2.3;;
49582;SDS011;36329;48.816;44.624;2022-08-19T08:19:22;8.1;;;2;;
49582;SDS011;36329;48.816;44.624;2022-08-19T08:22:25;15.9;;;2.4;;
49582;SDS011;36329;48.816;44.624;2022-08-19T08:25:33;11.9;;;2.4;;
49582;SDS011;36329;48.816;44.624;2022-08-19T08:28:36;10.2;;;2.3;;
49582;SDS011;36329;48.816;44.624;2022-08-19T08:31:38;14.1;;;2.5;;
49582;SDS011;36329;48.816;44.624;2022-08-19T08:34:41;12.5;;;2.9;;
49582;SDS011;36329;48.816;44.624;2022-08-19T08:37:43;13.4;;;2.7;;
49582;SDS011;36329;48.816;44.624;2022-08-19T08:40:47;13.8;;;2.9;;
49582;SDS011;36329;48.816;44.624;2022-08-19T08:43:55;13.1;;;2.9;;
49582;SDS011;36329;48.816;44.624;2022-08-19T08:46:58;9.9;;;2.7;;
49582;SDS011;36329;48.816;44.624;2022-08-19T08:50:07;17.2;;;2.7;;
49582;SDS011;36329;48.816;44.624;2022-08-19T08:53:16;18.4;;;2.8;;
49582;SDS011;36329;48.816;44.624;2022-08-19T08:56:34;16;;;3.9;;
49582;SDS011;36329;48.816;44.624;2022-08-19T08:59:41;22;;;5.4;;
49582;SDS011;36329;48.816;44.624;2022-08-19T09:02:59;28.7;;;3.6;;
49582;SDS011;36329;48.816;44.624;2022-08-19T09:06:04;29.5;;;4;;
49582;SDS011;36329;48.816;44.624;2022-08-19T09:09:16;22.4;;;3.5;;
49582;SDS011;36329;48.816;44.624;2022-08-19T09:12:31;36;;;4.2;;
49582;SDS011;36329;48.816;44.624;2022-08-19T09:15:45;31.7;;;3.8;;
49582;SDS011;36329;48.816;44.624;2022-08-19T09:18:53;32.9;;;4.1;;
49582;SDS011;36329;48.816;44.624;2022-08-19T09:21:56;20.6;;;3.2;;
49582;SDS011;36329;48.816;44.624;2022-08-19T09:24:59;29.1;;;3.8;;
49582;SDS011;36329;48.816;44.624;2022-08-19T09:28:01;30.2;;;3.7;;
49582;SDS011;36329;48.816;44.624;2022-08-19T09:31:09;25.4;;;3.4;;
49582;SDS011;36329;48.816;44.624;2022-08-19T09:34:11;27.1;;;3.7;;
49582;SDS011;36329;48.816;44.624;2022-08-19T09:37:12;38.3;;;4.7;;
49582;SDS011;36329;48.816;44.624;2022-08-19T09:40:15;37;;;4.1;;
49582;SDS011;36329;48.816;44.624;2022-08-19T09:43:17;45.2;;;4.9;;
49582;SDS011;36329;48.816;44.624;2022-08-19T09:50:34;46.6;;;5.3;;
49582;SDS011;36329;48.816;44.624;2022-08-19T09:53:37;41.9;;;5;;
49582;SDS011;36329;48.816;44.624;2022-08-19T09:56:39;43.2;;;5.4;;
49582;SDS011;36329;48.816;44.624;2022-08-19T09:59:40;51.8;;;5.2;;
49582;SDS011;36329;48.816;44.624;2022-08-19T10:02:42;45.3;;;5;;
49582;SDS011;36329;48.816;44.624;2022-08-19T10:05:44;40.9;;;4.8;;
49582;SDS011;36329;48.816;44.624;2022-08-19T10:08:45;48.8;;;5.8;;
49582;SDS011;36329;48.816;44.624;2022-08-19T10:11:52;37.4;;;5.2;;
49582;SDS011;36329;48.816;44.624;2022-08-19T10:15:05;45.3;;;5.1;;
49582;SDS011;36329;48.816;44.624;2022-08-19T10:18:13;40;;;4.8;;
49582;SDS011;36329;48.816;44.624;2022-08-19T10:21:16;55.1;;;5.9;;
49582;SDS011;36329;48.816;44.624;2022-08-19T10:24:21;48.5;;;5.4;;
49582;SDS011;36329;48.816;44.624;2022-08-19T10:27:27;44.4;;;5.7;;
49582;SDS011;36329;48.816;44.624;2022-08-19T10:30:29;52.3;;;5.4;;
49582;SDS011;36329;48.816;44.624;2022-08-19T10:33:31;39.7;;;5.2;;
49582;SDS011;36329;48.816;44.624;2022-08-19T10:36:33;40.5;;;5.1;;
49582;SDS011;36329;48.816;44.624;2022-08-19T10:39:37;49.4;;;5.3;;
49582;SDS011;36329;48.816;44.624;2022-08-19T10:42:39;46;;;5.7;;
49582;SDS011;36329;48.816;44.624;2022-08-19T10:45:40;54.5;;;6.7;;
49582;SDS011;36329;48.816;44.624;2022-08-19T10:48:42;100.1;;;9.8;;
49582;SDS011;36329;48.816;44.624;2022-08-19T10:51:50;89.9;;;9.4;;
49582;SDS011;36329;48.816;44.624;2022-08-19T10:54:53;74.8;;;9.3;;
49582;SDS011;36329;48.816;44.624;2022-08-19T10:57:55;71;;;8.4;;
49582;SDS011;36329;48.816;44.624;2022-08-19T11:01:02;71.5;;;8.2;;
49582;SDS011;36329;48.816;44.624;2022-08-19T11:04:10;82.5;;;9.7;;
49582;SDS011;36329;48.816;44.624;2022-08-19T11:07:13;81.8;;;9;;
49582;SDS011;36329;48.816;44.624;2022-08-19T11:10:14;83.4;;;9.2;;
49582;SDS011;36329;48.816;44.624;2022-08-19T11:13:16;100.8;;;10.5;;
49582;SDS011;36329;48.816;44.624;2022-08-19T11:16:19;74;;;9.9;;
49582;SDS011;36329;48.816;44.624;2022-08-19T11:19:27;84.4;;;7.8;;
49582;SDS011;36329;48.816;44.624;2022-08-19T11:22:29;66.4;;;6.8;;
49582;SDS011;36329;48.816;44.624;2022-08-19T11:25:31;62.9;;;5.9;;
49582;SDS011;36329;48.816;44.624;2022-08-19T11:28:32;55;;;5.8;;
49582;SDS011;36329;48.816;44.624;2022-08-19T11:31:34;63.9;;;7.3;;
49582;SDS011;36329;48.816;44.624;2022-08-19T11:34:41;82.1;;;7.7;;
49582;SDS011;36329;48.816;44.624;2022-08-19T11:37:49;78.9;;;8.3;;
49582;SDS011;36329;48.816;44.624;2022-08-19T11:40:54;103.1;;;9.6;;
49582;SDS011;36329;48.816;44.624;2022-08-19T11:43:55;125;;;11.5;;
49582;SDS011;36329;48.816;44.624;2022-08-19T11:46:57;139.6;;;12.6;;
49582;SDS011;36329;48.816;44.624;2022-08-19T11:49:58;121;;;11.9;;
49582;SDS011;36329;48.816;44.624;2022-08-19T11:53:00;144.9;;;13.3;;
49582;SDS011;36329;48.816;44.624;2022-08-19T11:56:02;140;;;13.7;;
49582;SDS011;36329;48.816;44.624;2022-08-19T11:59:15;172.3;;;16.4;;
49582;SDS011;36329;48.816;44.624;2022-08-19T12:02:17;168.6;;;17;;
49582;SDS011;36329;48.816;44.624;2022-08-19T12:05:19;163.3;;;16.6;;
49582;SDS011;36329;48.816;44.624;2022-08-19T12:08:20;164.3;;;16.4;;
49582;SDS011;36329;48.816;44.624;2022-08-19T12:11:22;194.2;;;18.6;;
49582;SDS011;36329;48.816;44.624;2022-08-19T12:14:25;222.9;;;18.7;;
49582;SDS011;36329;48.816;44.624;2022-08-19T12:17:26;213.9;;;19.6;;
49582;SDS011;36329;48.816;44.624;2022-08-19T12:20:28;222.5;;;19.9;;
49582;SDS011;36329;48.816;44.624;2022-08-19T12:23:30;199.8;;;20;;
49582;SDS011;36329;48.816;44.624;2022-08-19T12:26:31;275.1;;;24.5;;
49582;SDS011;36329;48.816;44.624;2022-08-19T12:29:38;269.1;;;25.6;;
49582;SDS011;36329;48.816;44.624;2022-08-19T12:32:45;300.7;;;26.9;;
49582;SDS011;36329;48.816;44.624;2022-08-19T12:35:47;307.4;;;29.4;;
49582;SDS011;36329;48.816;44.624;2022-08-19T12:38:54;302.4;;;27.4;;
49582;SDS011;36329;48.816;44.624;2022-08-19T12:42:01;341.3;;;30.5;;
49582;SDS011;36329;48.816;44.624;2022-08-19T12:45:09;341.7;;;29.7;;
49582;SDS011;36329;48.816;44.624;2022-08-19T12:48:17;411.8;;;36.9;;
49582;SDS011;36329;48.816;44.624;2022-08-19T12:51:19;404.6;;;37.3;;
49582;SDS011;36329;48.816;44.624;2022-08-19T12:54:20;409.7;;;39.6;;
49582;SDS011;36329;48.816;44.624;2022-08-19T12:57:22;457.2;;;42.1;;
49582;SDS011;36329;48.816;44.624;2022-08-19T13:00:24;505.8;;;46.1;;
49582;SDS011;36329;48.816;44.624;2022-08-19T13:03:26;413.5;;;38.7;;
49582;SDS011;36329;48.816;44.624;2022-08-19T13:06:33;394.9;;;36;;
49582;SDS011;36329;48.816;44.624;2022-08-19T13:09:35;386.1;;;35.1;;
49582;SDS011;36329;48.816;44.624;2022-08-19T13:12:37;375.6;;;33.5;;
49582;SDS011;36329;48.816;44.624;2022-08-19T13:15:40;291;;;27.8;;
49582;SDS011;36329;48.816;44.624;2022-08-19T13:18:44;266.1;;;23;;
49582;SDS011;36329;48.816;44.624;2022-08-19T13:21:49;238.9;;;19.5;;
49582;SDS011;36329;48.816;44.624;2022-08-19T13:24:51;160.7;;;14.8;;
49582;SDS011;36329;48.816;44.624;2022-08-19T13:27:52;152;;;14.2;;
49582;SDS011;36329;48.816;44.624;2022-08-19T13:30:54;129.5;;;12.4;;
49582;SDS011;36329;48.816;44.624;2022-08-19T13:33:56;121.2;;;11;;
49582;SDS011;36329;48.816;44.624;2022-08-19T13:36:57;103.3;;;9.7;;
49582;SDS011;36329;48.816;44.624;2022-08-19T13:39:59;128.5;;;11.5;;
49582;SDS011;36329;48.816;44.624;2022-08-19T13:43:02;106.8;;;10.7;;
49582;SDS011;36329;48.816;44.624;2022-08-19T13:46:08;94.1;;;10.5;;
49582;SDS011;36329;48.816;44.624;2022-08-19T13:49:12;102.6;;;10.2;;
49582;SDS011;36329;48.816;44.624;2022-08-19T13:52:14;157.1;;;14.5;;
49582;SDS011;36329;48.816;44.624;2022-08-19T13:55:16;115.2;;;13.1;;
49582;SDS011;36329;48.816;44.624;2022-08-19T13:58:17;136.6;;;14.1;;
49582;SDS011;36329;48.816;44.624;2022-08-19T14:01:30;150.5;;;14.7;;
49582;SDS011;36329;48.816;44.624;2022-08-19T14:04:32;166.8;;;16.6;;
49582;SDS011;36329;48.816;44.624;2022-08-19T14:07:39;182.8;;;16;;
49582;SDS011;36329;48.816;44.624;2022-08-19T14:10:41;128.3;;;13.3;;
49582;SDS011;36329;48.816;44.624;2022-08-19T14:13:43;125.1;;;13.3;;
49582;SDS011;36329;48.816;44.624;2022-08-19T14:16:50;159.8;;;14.2;;
49582;SDS011;36329;48.816;44.624;2022-08-19T14:19:55;167.8;;;14.8;;
49582;SDS011;36329;48.816;44.624;2022-08-19T14:26:10;221.2;;;18.7;;
49582;SDS011;36329;48.816;44.624;2022-08-19T14:29:13;182.3;;;17.6;;
49582;SDS011;36329;48.816;44.624;2022-08-19T14:32:15;186;;;17.2;;
49582;SDS011;36329;48.816;44.624;2022-08-19T14:35:22;171.1;;;17.1;;
49582;SDS011;36329;48.816;44.624;2022-08-19T14:38:24;205.3;;;20.4;;
49582;SDS011;36329;48.816;44.624;2022-08-19T14:41:27;204.6;;;20.1;;
49582;SDS011;36329;48.816;44.624;2022-08-19T14:44:29;251.9;;;22.5;;
49582;SDS011;36329;48.816;44.624;2022-08-19T14:47:36;221.6;;;22.2;;
49582;SDS011;36329;48.816;44.624;2022-08-19T14:50:37;234.8;;;23.1;;
49582;SDS011;36329;48.816;44.624;2022-08-19T14:53:39;271.6;;;25.1;;
49582;SDS011;36329;48.816;44.624;2022-08-19T14:56:40;329.7;;;30.1;;
49582;SDS011;36329;48.816;44.624;2022-08-19T14:59:53;310.1;;;27.9;;
49582;SDS011;36329;48.816;44.624;2022-08-19T15:02:54;341;;;30.9;;
49582;SDS011;36329;48.816;44.624;2022-08-19T15:05:56;341.4;;;33.4;;
49582;SDS011;36329;48.816;44.624;2022-08-19T15:08:59;307;;;28.6;;
49582;SDS011;36329;48.816;44.624;2022-08-19T15:12:01;298.1;;;27.8;;
49582;SDS011;36329;48.816;44.624;2022-08-19T15:15:04;309.1;;;28.3;;
49582;SDS011;36329;48.816;44.624;2022-08-19T15:18:06;299.8;;;28.1;;
49582;SDS011;36329;48.816;44.624;2022-08-19T15:21:07;316.4;;;30.6;;
49582;SDS011;36329;48.816;44.624;2022-08-19T15:24:14;328.9;;;31.6;;
49582;SDS011;36329;48.816;44.624;2022-08-19T15:27:16;350.5;;;31.6;;
49582;SDS011;36329;48.816;44.624;2022-08-19T15:30:19;307;;;28;;
49582;SDS011;36329;48.816;44.624;2022-08-19T15:33:22;312.4;;;29.4;;
49582;SDS011;36329;48.816;44.624;2022-08-19T15:36:24;258.7;;;25.6;;
49582;SDS011;36329;48.816;44.624;2022-08-19T15:39:26;274.6;;;26.3;;
49582;SDS011;36329;48.816;44.624;2022-08-19T15:42:33;332;;;30.2;;
49582;SDS011;36329;48.816;44.624;2022-08-19T15:45:37;332.1;;;31.8;;
49582;SDS011;36329;48.816;44.624;2022-08-19T15:48:38;334.5;;;30.1;;
49582;SDS011;36329;48.816;44.624;2022-08-19T15:51:40;302;;;27.6;;
49582;SDS011;36329;48.816;44.624;2022-08-19T15:54:59;295.3;;;28.4;;
49582;SDS011;36329;48.816;44.624;2022-08-19T15:58:01;297.1;;;29.9;;
49582;SDS011;36329;48.816;44.624;2022-08-19T16:01:06;311.6;;;30.4;;
49582;SDS011;36329;48.816;44.624;2022-08-19T16:04:08;349.6;;;31.1;;
49582;SDS011;36329;48.816;44.624;2022-08-19T16:07:10;307.1;;;30.8;;
49582;SDS011;36329;48.816;44.624;2022-08-19T16:10:11;310.9;;;28.1;;
49582;SDS011;36329;48.816;44.624;2022-08-19T16:13:18;240.1;;;24;;
49582;SDS011;36329;48.816;44.624;2022-08-19T16:16:25;217;;;21;;
49582;SDS011;36329;48.816;44.624;2022-08-19T16:19:40;184.8;;;18.8;;
49582;SDS011;36329;48.816;44.624;2022-08-19T16:22:41;188.9;;;17.9;;
49582;SDS011;36329;48.816;44.624;2022-08-19T16:25:43;158.7;;;17.6;;
49582;SDS011;36329;48.816;44.624;2022-08-19T16:28:45;176.3;;;16.8;;
49582;SDS011;36329;48.816;44.624;2022-08-19T16:31:47;154.9;;;14.7;;
49582;SDS011;36329;48.816;44.624;2022-08-19T16:34:55;128.3;;;12.9;;
49582;SDS011;36329;48.816;44.624;2022-08-19T16:38:02;113.7;;;11.1;;
49582;SDS011;36329;48.816;44.624;2022-08-19T16:41:04;109.2;;;11.5;;
49582;SDS011;36329;48.816;44.624;2022-08-19T16:44:06;102.3;;;10.6;;
49582;SDS011;36329;48.816;44.624;2022-08-19T16:47:10;77.3;;;9;;
49582;SDS011;36329;48.816;44.624;2022-08-19T16:50:12;61.4;;;7.8;;
49582;SDS011;36329;48.816;44.624;2022-08-19T16:53:14;46.4;;;6.5;;
49582;SDS011;36329;48.816;44.624;2022-08-19T16:56:17;38.4;;;5.7;;
49582;SDS011;36329;48.816;44.624;2022-08-19T16:59:19;37.8;;;5.2;;
49582;SDS011;36329;48.816;44.624;2022-08-19T17:02:26;27.4;;;3.9;;
49582;SDS011;36329;48.816;44.624;2022-08-19T17:05:27;23.8;;;4.5;;
49582;SDS011;36329;48.816;44.624;2022-08-19T17:08:30;23.2;;;3.6;;
49582;SDS011;36329;48.816;44.624;2022-08-19T17:11:37;26.1;;;4;;
49582;SDS011;36329;48.816;44.624;2022-08-19T17:14:39;25.9;;;3.4;;
49582;SDS011;36329;48.816;44.624;2022-08-19T17:17:41;26.3;;;4.2;;
49582;SDS011;36329;48.816;44.624;2022-08-19T17:20:43;25.4;;;5.5;;
49582;SDS011;36329;48.816;44.624;2022-08-19T17:26:56;23.5;;;4.7;;
49582;SDS011;36329;48.816;44.624;2022-08-19T17:29:58;21.7;;;4.5;;
49582;SDS011;36329;48.816;44.624;2022-08-19T17:33:00;21.3;;;4.9;;
49582;SDS011;36329;48.816;44.624;2022-08-19T17:36:02;25.5;;;4.9;;
49582;SDS011;36329;48.816;44.624;2022-08-19T17:39:04;19.5;;;4.4;;
49582;SDS011;36329;48.816;44.624;2022-08-19T17:42:11;21.6;;;4.6;;
49582;SDS011;36329;48.816;44.624;2022-08-19T17:45:13;29.9;;;4.9;;
49582;SDS011;36329;48.816;44.624;2022-08-19T17:48:20;20.6;;;3.4;;
49582;SDS011;36329;48.816;44.624;2022-08-19T17:51:23;30.4;;;3.9;;
49582;SDS011;36329;48.816;44.624;2022-08-19T17:54:26;18.7;;;3.6;;
49582;SDS011;36329;48.816;44.624;2022-08-19T17:57:28;15.7;;;3.2;;
49582;SDS011;36329;48.816;44.624;2022-08-19T18:00:30;20.6;;;3.9;;
49582;SDS011;36329;48.816;44.624;2022-08-19T18:03:32;22;;;3.3;;
49582;SDS011;36329;48.816;44.624;2022-08-19T18:06:34;16.1;;;3.5;;
49582;SDS011;36329;48.816;44.624;2022-08-19T18:09:37;19.2;;;3.5;;
49582;SDS011;36329;48.816;44.624;2022-08-19T18:12:40;17.5;;;3.4;;
49582;SDS011;36329;48.816;44.624;2022-08-19T18:15:42;17.1;;;4;;
49582;SDS011;36329;48.816;44.624;2022-08-19T18:18:48;14.3;;;3.5;;
49582;SDS011;36329;48.816;44.624;2022-08-19T18:21:51;15;;;3.6;;
49582;SDS011;36329;48.816;44.624;2022-08-19T18:25:04;20.2;;;3.9;;
49582;SDS011;36329;48.816;44.624;2022-08-19T18:28:12;17.3;;;3.4;;
49582;SDS011;36329;48.816;44.624;2022-08-19T18:31:14;14.8;;;3.2;;
49582;SDS011;36329;48.816;44.624;2022-08-19T18:34:16;25.3;;;3.9;;
49582;SDS011;36329;48.816;44.624;2022-08-19T18:37:23;21.3;;;3.1;;
49582;SDS011;36329;48.816;44.624;2022-08-19T18:40:25;17.3;;;2.8;;
49582;SDS011;36329;48.816;44.624;2022-08-19T18:43:29;12.9;;;2.9;;
49582;SDS011;36329;48.816;44.624;2022-08-19T18:46:36;18.6;;;3.5;;
49582;SDS011;36329;48.816;44.624;2022-08-19T18:49:38;17;;;2.9;;
49582;SDS011;36329;48.816;44.624;2022-08-19T18:52:39;17;;;2.9;;
49582;SDS011;36329;48.816;44.624;2022-08-19T18:55:41;12.8;;;2.9;;